Briggs, Texas
Current Conditions -  °F | °C
As of 2:15 PM on Friday 19 Dec 2014 (Local Time) from KILE Reporting Station
Overcast Overcast  
Wind Chill: 50°   Ceiling: 800
Heat Index: 50°   Visibility: 9mi
Dew Point: 43°   Wind: 9mph
Humidity: 76%   Direction: 360°N
Pressure: 30.09"   Gusts: NA
Location:  30.89°N, 97.93°W
Report Text: KILE 192015Z AUTO 36008KT 9SM OVC008 10/06 A3009 RMK AO1
Loading
Personal Weather Stations






























Interactive Weather Map New forecast layout! Learn more

10-Day Weather Forecast

Advertisements
Track Severe Weather on mobile